McChord Air Force Base Tacoma US
ICAO: KTCM
IATA: TCM
Category: Large
Scheduled Services: No

Elevation: 322 ft
TransAlt. 18000 ft.

Airport Communications:
SEATTLE APP/DEP:126.5
ATIS:27.01
GND:125.15
PMSV METRO:34.25
COMD POST:34.94
PTD:37.22
TWR:124.8

KTCM Zoom In..

If you have problems with the map follow the link
https://www.worldairports.se/pages/airport.php?
ICAO=KTCM

Runways:

(A) RW 16 length 10108 ft width 150 ft
ILS 109.90 / hdg 160

(B) RW 34 length 10108 ft width 150 ft
ILS 108.50 / hdg 340

Location; KTCM
Day. 12 / Time. 23.03 Zulu
* Altimeter: 29.91
* Temperature: 08° c. 46.4°f.
* Wind from: KTC° Speed M kn.
Dewpoint: 08° c.
Visibility: 9 Statute Miles.
Clouds: Broken 2400 ft.
Clouds: Broken 3300 ft.
Clouds: Overcast 4500 ft.
Clouds: Broken 2400 ft.
Clouds: Scattered 00 ft.
Conditions: Light Rain.

KTCM 122303Z AUTO 19011KT 9SM -RA BKN024 BKN033 OVC045 08/08 A2991 RMK AO2 CIG 024V045 BKN024 V SCT SLP133 RVRNO $


Wind From KTC°
Speed M kn.

 
 
jpsmedia worldairports.se 2019   terms of use